createdAt,value
2023-09-23T00:03:41.673Z,98592.13
2023-09-23T00:07:39.607Z,98593.49
2023-09-23T00:11:37.547Z,98594.48
2023-09-23T00:15:35.577Z,98593.80
2023-09-23T00:19:33.584Z,98593.92
2023-09-23T00:23:31.570Z,98587.04
2023-09-23T00:27:29.533Z,98585.33
2023-09-23T00:31:27.552Z,98585.92
2023-09-23T00:35:26.502Z,98585.77
2023-09-23T00:39:26.549Z,98583.02
2023-09-23T00:43:25.527Z,98577.98
2023-09-23T00:47:23.618Z,98580.39
2023-09-23T00:51:21.520Z,98587.77
2023-09-23T00:55:20.494Z,98582.91
2023-09-23T00:59:24.550Z,98581.98
2023-09-23T01:03:23.728Z,98584.22
2023-09-23T01:07:21.497Z,98581.73
2023-09-23T01:11:19.926Z,98586.04
2023-09-23T01:15:17.501Z,98580.12
2023-09-23T01:19:17.511Z,98587.52
2023-09-23T01:23:15.577Z,98587.26
2023-09-23T01:27:13.500Z,98590.86
2023-09-23T01:31:11.509Z,98596.20
2023-09-23T01:35:11.529Z,98594.91
2023-09-23T01:39:12.444Z,98590.33
2023-09-23T01:43:10.485Z,98585.75
2023-09-23T01:47:08.531Z,98580.98
2023-09-23T01:51:06.516Z,98580.80
2023-09-23T01:55:04.450Z,98584.35
2023-09-23T01:59:02.549Z,98585.69
2023-09-23T02:03:04.506Z,98584.06
2023-09-23T02:07:02.448Z,98578.96
2023-09-23T02:11:00.481Z,98584.05
2023-09-23T02:14:59.463Z,98589.95
2023-09-23T02:18:58.436Z,98595.90
2023-09-23T02:22:56.521Z,98597.41
2023-09-23T02:26:54.507Z,98596.63
2023-09-23T02:30:52.467Z,98601.44
2023-09-23T02:34:52.476Z,98607.80
2023-09-23T02:38:51.436Z,98614.03
2023-09-23T02:42:50.417Z,98615.80
2023-09-23T02:46:49.500Z,98613.75
2023-09-23T02:50:47.412Z,98614.08
2023-09-23T02:54:45.480Z,98612.63
2023-09-23T02:58:43.493Z,98612.01
2023-09-23T03:02:41.523Z,98616.87
2023-09-23T03:06:39.426Z,98622.45
2023-09-23T03:10:47.462Z,98617.84
2023-09-23T03:14:48.406Z,98616.25
2023-09-23T03:18:52.412Z,98613.80
2023-09-23T03:22:50.379Z,98615.42
2023-09-23T03:27:20.384Z,98613.96
2023-09-23T03:31:18.356Z,98610.63
2023-09-23T03:35:21.448Z,98611.36
2023-09-23T03:39:19.344Z,98612.27
2023-09-23T03:43:17.386Z,98618.13
2023-09-23T03:47:15.387Z,98623.30
2023-09-23T03:51:14.341Z,98630.27
2023-09-23T03:55:12.378Z,98626.35
2023-09-23T03:59:14.873Z,98631.20
2023-09-23T04:03:12.340Z,98644.64
2023-09-23T04:07:10.335Z,98641.52
2023-09-23T04:11:08.371Z,98637.16
2023-09-23T04:15:06.313Z,98638.58
2023-09-23T04:19:04.321Z,98643.83
2023-09-23T04:23:02.364Z,98654.05
2023-09-23T04:27:01.329Z,98662.52
2023-09-23T04:30:59.357Z,98671.33
2023-09-23T04:34:57.371Z,98685.92
2023-09-23T04:38:55.330Z,98689.88
2023-09-23T04:42:56.278Z,98684.54
2023-09-23T04:46:54.324Z,98676.89
2023-09-23T04:50:52.279Z,98672.13
2023-09-23T04:54:50.296Z,98672.02
2023-09-23T04:58:48.480Z,98668.67
2023-09-23T05:02:49.583Z,98666.23
2023-09-23T05:06:47.319Z,98675.54
2023-09-23T05:10:47.345Z,98678.29
2023-09-23T05:14:45.283Z,98687.59
2023-09-23T05:18:43.335Z,98695.69
2023-09-23T05:22:41.266Z,98703.98
2023-09-23T05:26:41.266Z,98701.00
2023-09-23T05:30:40.331Z,98702.87
2023-09-23T05:34:38.257Z,98713.92
2023-09-23T05:38:36.229Z,98717.83
2023-09-23T05:42:34.272Z,98717.40
2023-09-23T05:46:32.245Z,98719.91
2023-09-23T05:50:30.274Z,98721.48
2023-09-23T05:54:30.265Z,98720.15
2023-09-23T05:58:28.257Z,98721.34
2023-09-23T06:02:26.305Z,98727.96
2023-09-23T06:06:24.304Z,98722.45
2023-09-23T06:10:23.206Z,98731.91
2023-09-23T06:18:41.225Z,98756.90
2023-09-23T06:22:39.298Z,98771.31
2023-09-23T06:26:37.206Z,98776.30
2023-09-23T06:30:35.229Z,98782.73
2023-09-23T06:34:33.231Z,98784.98
2023-09-23T06:38:31.262Z,98781.28
2023-09-23T06:42:29.252Z,98781.08
2023-09-23T06:46:27.229Z,98783.73
2023-09-23T06:50:25.231Z,98780.93
2023-09-23T06:54:23.251Z,98785.73
2023-09-23T06:58:21.144Z,98786.58
2023-09-23T07:02:19.353Z,98788.98
2023-09-23T07:06:17.161Z,98795.07
2023-09-23T07:10:17.210Z,98798.33
2023-09-23T07:14:15.247Z,98804.55
2023-09-23T07:18:13.220Z,98808.02
2023-09-23T07:22:11.159Z,98814.05
2023-09-23T07:26:09.292Z,98816.25
2023-09-23T07:30:07.143Z,98820.48
2023-09-23T07:34:05.204Z,98821.16
2023-09-23T07:38:03.314Z,98827.70
2023-09-23T07:42:01.166Z,98832.64
2023-09-23T07:45:59.268Z,98837.11
2023-09-23T07:49:57.171Z,98836.16
2023-09-23T07:53:55.133Z,98837.40
2023-09-23T07:57:53.177Z,98836.33
2023-09-23T08:01:51.201Z,98839.73
2023-09-23T08:05:49.191Z,98840.81
2023-09-23T08:09:47.111Z,98848.45
2023-09-23T08:13:45.385Z,98857.75
2023-09-23T08:17:43.161Z,98853.61
2023-09-23T08:21:41.134Z,98856.58
2023-09-23T08:25:39.107Z,98871.91
2023-09-23T08:29:37.187Z,98872.85
2023-09-23T08:33:35.124Z,98877.50
2023-09-23T08:37:33.140Z,98875.23
2023-09-23T08:41:36.099Z,98876.33
2023-09-23T08:45:39.254Z,98865.92
2023-09-23T08:49:37.071Z,98866.16
2023-09-23T08:53:39.116Z,98865.52
2023-09-23T08:57:37.119Z,98870.16
2023-09-23T09:01:35.102Z,98872.52
2023-09-23T09:05:33.150Z,98867.53
2023-09-23T09:09:31.076Z,98872.50
2023-09-23T09:13:29.052Z,98880.63
2023-09-23T09:17:27.262Z,98875.76
2023-09-23T09:21:25.061Z,98874.98
2023-09-23T09:25:23.111Z,98887.89
2023-09-23T09:29:22.129Z,98896.08
2023-09-23T09:33:23.225Z,98896.48
2023-09-23T09:37:22.065Z,98900.82
2023-09-23T09:41:23.116Z,98908.52
2023-09-23T09:45:27.036Z,98905.25
2023-09-23T09:49:26.097Z,98891.69
2023-09-23T09:53:25.065Z,98886.13
2023-09-23T09:57:23.091Z,98897.13
2023-09-23T10:01:26.075Z,98902.46
2023-09-23T10:05:25.086Z,98916.61
2023-09-23T10:09:29.040Z,98930.33
2023-09-23T10:13:32.051Z,98941.36
2023-09-23T10:17:31.083Z,98938.23
2023-09-23T10:21:40.009Z,98942.40
2023-09-23T10:25:38.052Z,98948.52
2023-09-23T10:29:36.160Z,98940.39
2023-09-23T10:33:33.998Z,98919.30
2023-09-23T10:37:49.079Z,98936.30
2023-09-23T10:41:49.033Z,98934.55
2023-09-23T10:45:47.004Z,98927.67
2023-09-23T10:49:45.000Z,98927.03
2023-09-23T10:53:42.985Z,98928.55
2023-09-23T10:57:41.022Z,98923.02
2023-09-23T11:01:39.109Z,98930.29
2023-09-23T11:05:37.988Z,98933.92
2023-09-23T11:09:35.977Z,98934.44
2023-09-23T11:13:33.964Z,98946.91
2023-09-23T11:17:43.124Z,98939.70
2023-09-23T11:21:20.513Z,98930.65
2023-09-23T11:24:48.178Z,98926.83
2023-09-23T11:28:25.992Z,98925.39
2023-09-23T11:31:50.034Z,98940.05
2023-09-23T11:35:15.904Z,98946.46
2023-09-23T11:38:41.835Z,98946.55
2023-09-23T11:42:06.454Z,98942.56
2023-09-23T11:45:30.460Z,98945.77
2023-09-23T11:48:54.454Z,98940.98
2023-09-23T11:52:18.369Z,98941.98
2023-09-23T11:55:43.257Z,98939.77
2023-09-23T11:59:08.842Z,98939.48
2023-09-23T12:02:33.253Z,98937.48
2023-09-23T12:05:57.466Z,98932.81
2023-09-23T12:09:21.464Z,98934.17
2023-09-23T12:12:45.329Z,98927.84
2023-09-23T12:16:43.260Z,98917.23
2023-09-23T12:20:13.333Z,98909.05
2023-09-23T12:23:39.063Z,98905.30
2023-09-23T12:27:02.969Z,98900.41
2023-09-23T12:30:26.832Z,98893.03
2023-09-23T12:33:50.735Z,98893.62
2023-09-23T12:37:14.658Z,98899.04
2023-09-23T12:40:39.130Z,98907.89
2023-09-23T12:44:03.141Z,98913.30
2023-09-23T12:47:32.251Z,98920.19
2023-09-23T12:51:04.749Z,98934.67
2023-09-23T12:54:29.177Z,98941.59
2023-09-23T12:57:54.527Z,98956.95
2023-09-23T13:01:18.640Z,98961.88
2023-09-23T13:04:42.531Z,98950.16
2023-09-23T13:08:07.298Z,98947.41
2023-09-23T13:11:32.319Z,98948.08
2023-09-23T13:14:56.275Z,98950.44
2023-09-23T13:18:20.879Z,98945.80
2023-09-23T13:21:44.870Z,98937.48
2023-09-23T13:25:09.312Z,98931.67
2023-09-23T13:28:33.185Z,98941.21
2023-09-23T13:31:57.830Z,98943.15
2023-09-23T13:35:21.826Z,98948.45
2023-09-23T13:38:47.691Z,98942.11
2023-09-23T13:42:11.830Z,98948.50
2023-09-23T13:45:35.765Z,98947.33
2023-09-23T13:48:59.718Z,98952.04
2023-09-23T13:52:23.696Z,98954.77
2023-09-23T13:55:47.583Z,98969.62
2023-09-23T13:59:12.226Z,98967.29
2023-09-23T14:02:37.231Z,98941.21
2023-09-23T14:06:01.260Z,98944.67
2023-09-23T14:09:25.515Z,98949.64
2023-09-23T14:12:49.783Z,98950.33
2023-09-23T14:16:13.721Z,98953.70
2023-09-23T14:19:37.788Z,98955.84
2023-09-23T14:23:03.019Z,98956.70
2023-09-23T14:26:27.225Z,98954.60
2023-09-23T14:29:52.799Z,98963.23
2023-09-23T14:33:17.011Z,98969.10
2023-09-23T14:36:41.122Z,98979.90
2023-09-23T14:40:05.292Z,98993.68
2023-09-23T14:43:29.475Z,98992.36
2023-09-23T14:46:53.509Z,98994.89
2023-09-23T14:50:17.699Z,98999.05
2023-09-23T14:53:41.896Z,99017.30
2023-09-23T14:57:05.841Z,99012.06
2023-09-23T15:00:29.751Z,99024.94
2023-09-23T15:03:55.195Z,99041.20
2023-09-23T15:07:19.946Z,99003.58
2023-09-23T15:10:43.984Z,99017.35
2023-09-23T15:14:08.479Z,99024.66
2023-09-23T15:17:32.747Z,99022.63
2023-09-23T15:20:58.356Z,99020.72
2023-09-23T15:24:22.755Z,99027.58
2023-09-23T15:27:46.685Z,99028.39
2023-09-23T15:31:10.861Z,99028.77
2023-09-23T15:34:34.781Z,99031.50
2023-09-23T15:37:58.778Z,99031.89
2023-09-23T15:41:22.778Z,99031.23
2023-09-23T15:44:46.817Z,99036.19
2023-09-23T15:48:11.076Z,99032.32
2023-09-23T15:51:35.093Z,99039.23
2023-09-23T15:54:59.794Z,99045.81
2023-09-23T15:58:25.383Z,99057.34
2023-09-23T16:01:49.503Z,99052.33
2023-09-23T16:05:14.782Z,99055.46
2023-09-23T16:08:38.965Z,99054.47
2023-09-23T16:12:03.292Z,99055.56
2023-09-23T16:15:27.218Z,99049.21
2023-09-23T16:18:51.114Z,99054.16
2023-09-23T16:22:15.965Z,99059.92
2023-09-23T16:25:40.227Z,99054.19
2023-09-23T16:29:04.625Z,99048.33
2023-09-23T16:32:29.078Z,99055.66
2023-09-23T16:35:53.220Z,99049.94
2023-09-23T16:39:17.658Z,99050.38
2023-09-23T16:42:41.655Z,99075.30
2023-09-23T16:46:06.036Z,99084.55
2023-09-23T16:49:30.425Z,99094.23
2023-09-23T16:52:54.865Z,99081.98
2023-09-23T16:56:18.740Z,99055.38
2023-09-23T16:59:42.763Z,99084.34
2023-09-23T17:03:06.891Z,99114.98
2023-09-23T17:06:31.204Z,99119.58
2023-09-23T17:09:55.150Z,99128.65
2023-09-23T17:13:19.184Z,99144.73
2023-09-23T17:16:43.122Z,99175.02
2023-09-23T17:20:07.609Z,99182.87
2023-09-23T17:23:32.389Z,99186.14
2023-09-23T17:26:56.387Z,99168.77
2023-09-23T17:30:20.920Z,99156.02
2023-09-23T17:33:44.996Z,99163.77
2023-09-23T17:37:08.963Z,99172.66
2023-09-23T17:40:32.782Z,99190.12
2023-09-23T17:43:56.702Z,99211.63
2023-09-23T17:47:22.138Z,99226.20
2023-09-23T17:50:46.167Z,99230.80
2023-09-23T17:54:10.936Z,99235.02
2023-09-23T17:57:34.917Z,99247.83
2023-09-23T18:00:59.078Z,99258.70
2023-09-23T18:04:23.190Z,99268.81
2023-09-23T18:07:47.296Z,99277.48
2023-09-23T18:11:12.346Z,99282.95
2023-09-23T18:14:36.374Z,99288.52
2023-09-23T18:18:12.527Z,99280.08
2023-09-23T18:21:36.500Z,99275.36
2023-09-23T18:25:00.556Z,99278.80
2023-09-23T18:28:24.554Z,99286.35
2023-09-23T18:31:48.479Z,99294.90
2023-09-23T18:35:12.530Z,99295.64
2023-09-23T18:38:36.717Z,99295.83
2023-09-23T18:42:01.290Z,99307.61
2023-09-23T18:45:25.878Z,99308.13
2023-09-23T18:48:50.694Z,99312.15
2023-09-23T18:52:14.587Z,99319.28
2023-09-23T18:55:39.343Z,99324.61
2023-09-23T18:59:03.417Z,99325.06
2023-09-23T19:02:27.506Z,99327.02
2023-09-23T19:05:51.522Z,99330.66
2023-09-23T19:09:15.937Z,99332.78
2023-09-23T19:12:40.421Z,99344.89
2023-09-23T19:16:05.836Z,99351.55
2023-09-23T19:19:29.973Z,99349.77
2023-09-23T19:22:53.949Z,99347.35
2023-09-23T19:26:18.039Z,99353.67
2023-09-23T19:29:42.032Z,99351.72
2023-09-23T19:33:06.438Z,99358.35
2023-09-23T19:36:31.456Z,99364.57
2023-09-23T19:39:56.014Z,99372.11
2023-09-23T19:43:19.942Z,99374.27
2023-09-23T19:46:43.928Z,99378.52
2023-09-23T19:50:07.993Z,99386.23
2023-09-23T19:53:32.119Z,99398.35
2023-09-23T19:56:56.203Z,99403.40
2023-09-23T20:00:20.290Z,99413.79
2023-09-23T20:03:46.684Z,99420.00
2023-09-23T20:07:10.720Z,99414.98
2023-09-23T20:10:36.972Z,99419.48
2023-09-23T20:14:01.081Z,99427.04
2023-09-23T20:17:25.454Z,99424.70
2023-09-23T20:20:49.553Z,99417.02
2023-09-23T20:24:14.567Z,99418.44
2023-09-23T20:27:38.416Z,99436.61
2023-09-23T20:31:03.048Z,99443.55
2023-09-23T20:34:27.125Z,99451.02
2023-09-23T20:37:51.007Z,99455.20
2023-09-23T20:41:14.890Z,99458.77
2023-09-23T20:44:41.656Z,99464.33
2023-09-23T20:48:05.828Z,99463.66
2023-09-23T20:51:31.352Z,99452.90
2023-09-23T20:54:55.371Z,99454.72
2023-09-23T20:58:19.276Z,99465.04
2023-09-23T21:01:43.672Z,99462.50
2023-09-23T21:05:08.840Z,99457.38
2023-09-23T21:08:32.773Z,99454.35
2023-09-23T21:11:56.813Z,99459.81
2023-09-23T21:15:20.710Z,99460.44
2023-09-23T21:18:46.135Z,99455.54
2023-09-23T21:22:10.555Z,99452.53
2023-09-23T21:25:34.567Z,99448.32
2023-09-23T21:28:58.559Z,99447.41
2023-09-23T21:32:22.655Z,99453.45
2023-09-23T21:35:46.735Z,99460.91
2023-09-23T21:39:12.559Z,99459.84
2023-09-23T21:42:36.391Z,99461.29
2023-09-23T21:46:00.384Z,99469.22
2023-09-23T21:49:24.381Z,99473.26
2023-09-23T21:52:48.307Z,99475.32
2023-09-23T21:56:14.181Z,99476.96
2023-09-23T21:59:38.991Z,99478.89
2023-09-23T22:03:03.293Z,99482.50
2023-09-23T22:06:28.311Z,99488.89
2023-09-23T22:09:53.530Z,99500.30
2023-09-23T22:13:19.050Z,99501.30
2023-09-23T22:16:43.111Z,99500.80
2023-09-23T22:20:10.101Z,99501.42
2023-09-23T22:23:34.060Z,99498.52
2023-09-23T22:26:58.165Z,99497.09
2023-09-23T22:30:25.783Z,99495.31
2023-09-23T22:33:50.486Z,99493.54
2023-09-23T22:37:14.583Z,99492.38
2023-09-23T22:40:38.514Z,99481.52
2023-09-23T22:44:02.603Z,99475.48
2023-09-23T22:47:26.576Z,99470.02
2023-09-23T22:50:50.498Z,99477.81
2023-09-23T22:54:14.638Z,99480.98
2023-09-23T22:57:48.886Z,99481.49
2023-09-23T23:01:14.022Z,99477.71
2023-09-23T23:04:38.609Z,99478.02
2023-09-23T23:08:04.841Z,99489.48
2023-09-23T23:11:28.666Z,99497.12
2023-09-23T23:14:54.279Z,99489.95
2023-09-23T23:18:18.167Z,99482.08
2023-09-23T23:21:42.084Z,99472.66
2023-09-23T23:25:07.512Z,99484.59
2023-09-23T23:28:33.440Z,99488.90
2023-09-23T23:31:57.609Z,99498.63
2023-09-23T23:35:23.556Z,99511.58
2023-09-23T23:38:48.193Z,99525.07
2023-09-23T23:42:12.820Z,99536.77
2023-09-23T23:45:36.696Z,99543.54
2023-09-23T23:49:00.595Z,99544.75
2023-09-23T23:52:25.271Z,99534.73
2023-09-23T23:55:49.938Z,99523.87
2023-09-23T23:59:13.819Z,99538.01
